sensor_id;sensor_type;location;lat;lon;timestamp;P1;durP1;ratioP1;P2;durP2;ratioP2
7593;SDS011;3838;43.124;25.686;2024-01-07T00:01:14;121.82;;;116.53;;
7593;SDS011;3838;43.124;25.686;2024-01-07T00:03:40;120.40;;;115.10;;
7593;SDS011;3838;43.124;25.686;2024-01-07T00:06:07;118.82;;;113.65;;
7593;SDS011;3838;43.124;25.686;2024-01-07T00:08:33;120.20;;;114.95;;
7593;SDS011;3838;43.124;25.686;2024-01-07T00:10:58;120.32;;;115.10;;
7593;SDS011;3838;43.124;25.686;2024-01-07T00:13:23;119.22;;;114.10;;
7593;SDS011;3838;43.124;25.686;2024-01-07T00:15:49;116.82;;;111.78;;
7593;SDS011;3838;43.124;25.686;2024-01-07T00:18:14;118.05;;;112.95;;
7593;SDS011;3838;43.124;25.686;2024-01-07T00:20:40;116.45;;;111.43;;
7593;SDS011;3838;43.124;25.686;2024-01-07T00:23:05;114.93;;;109.90;;
7593;SDS011;3838;43.124;25.686;2024-01-07T00:25:30;112.22;;;107.40;;
7593;SDS011;3838;43.124;25.686;2024-01-07T00:27:56;115.55;;;110.50;;
7593;SDS011;3838;43.124;25.686;2024-01-07T00:30:22;113.60;;;108.70;;
7593;SDS011;3838;43.124;25.686;2024-01-07T00:32:47;115.65;;;110.72;;
7593;SDS011;3838;43.124;25.686;2024-01-07T00:35:16;111.97;;;107.15;;
7593;SDS011;3838;43.124;25.686;2024-01-07T00:37:41;112.35;;;107.53;;
7593;SDS011;3838;43.124;25.686;2024-01-07T00:40:07;109.32;;;104.60;;
7593;SDS011;3838;43.124;25.686;2024-01-07T00:42:33;110.65;;;105.90;;
7593;SDS011;3838;43.124;25.686;2024-01-07T00:44:58;108.22;;;103.63;;
7593;SDS011;3838;43.124;25.686;2024-01-07T00:47:23;111.65;;;106.85;;
7593;SDS011;3838;43.124;25.686;2024-01-07T00:49:49;108.78;;;104.10;;
7593;SDS011;3838;43.124;25.686;2024-01-07T00:52:15;106.68;;;102.05;;
7593;SDS011;3838;43.124;25.686;2024-01-07T00:54:40;104.50;;;100.05;;
7593;SDS011;3838;43.124;25.686;2024-01-07T00:57:06;110.18;;;105.47;;
7593;SDS011;3838;43.124;25.686;2024-01-07T00:59:31;104.50;;;100.05;;
7593;SDS011;3838;43.124;25.686;2024-01-07T01:01:56;106.70;;;102.15;;
7593;SDS011;3838;43.124;25.686;2024-01-07T01:04:22;103.50;;;99.10;;
7593;SDS011;3838;43.124;25.686;2024-01-07T01:06:47;109.72;;;105.07;;
7593;SDS011;3838;43.124;25.686;2024-01-07T01:09:13;106.68;;;102.15;;
7593;SDS011;3838;43.124;25.686;2024-01-07T01:11:38;106.97;;;102.43;;
7593;SDS011;3838;43.124;25.686;2024-01-07T01:14:04;103.13;;;98.75;;
7593;SDS011;3838;43.124;25.686;2024-01-07T01:16:29;103.78;;;99.38;;
7593;SDS011;3838;43.124;25.686;2024-01-07T01:18:54;101.10;;;96.80;;
7593;SDS011;3838;43.124;25.686;2024-01-07T01:21:20;98.88;;;94.68;;
7593;SDS011;3838;43.124;25.686;2024-01-07T01:23:46;99.20;;;94.97;;
7593;SDS011;3838;43.124;25.686;2024-01-07T01:26:11;99.10;;;94.93;;
7593;SDS011;3838;43.124;25.686;2024-01-07T01:28:37;97.05;;;92.93;;
7593;SDS011;3838;43.124;25.686;2024-01-07T01:31:02;97.47;;;93.38;;
7593;SDS011;3838;43.124;25.686;2024-01-07T01:33:28;99.00;;;94.88;;
7593;SDS011;3838;43.124;25.686;2024-01-07T01:35:54;98.63;;;94.53;;
7593;SDS011;3838;43.124;25.686;2024-01-07T01:38:19;95.65;;;91.65;;
7593;SDS011;3838;43.124;25.686;2024-01-07T01:40:50;95.18;;;91.22;;
7593;SDS011;3838;43.124;25.686;2024-01-07T01:43:22;94.55;;;90.55;;
7593;SDS011;3838;43.124;25.686;2024-01-07T01:45:52;94.85;;;90.88;;
7593;SDS011;3838;43.124;25.686;2024-01-07T01:48:18;95.00;;;91.03;;
7593;SDS011;3838;43.124;25.686;2024-01-07T01:50:43;90.55;;;86.72;;
7593;SDS011;3838;43.124;25.686;2024-01-07T01:53:09;88.35;;;84.68;;
7593;SDS011;3838;43.124;25.686;2024-01-07T01:55:35;85.30;;;81.75;;
7593;SDS011;3838;43.124;25.686;2024-01-07T01:58:00;84.90;;;81.35;;
7593;SDS011;3838;43.124;25.686;2024-01-07T02:00:29;82.60;;;79.20;;
7593;SDS011;3838;43.124;25.686;2024-01-07T02:02:55;80.40;;;77.05;;
7593;SDS011;3838;43.124;25.686;2024-01-07T02:05:21;78.53;;;75.25;;
7593;SDS011;3838;43.124;25.686;2024-01-07T02:07:46;76.82;;;73.65;;
7593;SDS011;3838;43.124;25.686;2024-01-07T02:10:12;76.63;;;73.43;;
7593;SDS011;3838;43.124;25.686;2024-01-07T02:12:38;75.97;;;72.82;;
7593;SDS011;3838;43.124;25.686;2024-01-07T02:15:04;73.60;;;70.57;;
7593;SDS011;3838;43.124;25.686;2024-01-07T02:17:30;70.43;;;67.50;;
7593;SDS011;3838;43.124;25.686;2024-01-07T02:19:56;71.40;;;68.43;;
7593;SDS011;3838;43.124;25.686;2024-01-07T02:22:21;70.43;;;67.50;;
7593;SDS011;3838;43.124;25.686;2024-01-07T02:24:47;67.25;;;64.40;;
7593;SDS011;3838;43.124;25.686;2024-01-07T02:27:12;71.63;;;68.68;;
7593;SDS011;3838;43.124;25.686;2024-01-07T02:29:37;68.90;;;66.03;;
7593;SDS011;3838;43.124;25.686;2024-01-07T02:32:03;69.57;;;66.72;;
7593;SDS011;3838;43.124;25.686;2024-01-07T02:34:29;70.68;;;67.80;;
7593;SDS011;3838;43.124;25.686;2024-01-07T02:36:54;71.13;;;68.22;;
7593;SDS011;3838;43.124;25.686;2024-01-07T02:39:19;71.30;;;68.38;;
7593;SDS011;3838;43.124;25.686;2024-01-07T02:41:45;71.75;;;68.82;;
7593;SDS011;3838;43.124;25.686;2024-01-07T02:44:10;71.43;;;68.47;;
7593;SDS011;3838;43.124;25.686;2024-01-07T02:46:36;69.18;;;66.32;;
7593;SDS011;3838;43.124;25.686;2024-01-07T02:49:01;68.72;;;65.90;;
7593;SDS011;3838;43.124;25.686;2024-01-07T02:51:27;69.93;;;67.07;;
7593;SDS011;3838;43.124;25.686;2024-01-07T02:53:52;73.03;;;70.00;;
7593;SDS011;3838;43.124;25.686;2024-01-07T02:56:18;70.00;;;67.15;;
7593;SDS011;3838;43.124;25.686;2024-01-07T02:58:43;68.18;;;65.43;;
7593;SDS011;3838;43.124;25.686;2024-01-07T03:01:09;67.72;;;64.97;;
7593;SDS011;3838;43.124;25.686;2024-01-07T03:03:35;67.70;;;64.95;;
7593;SDS011;3838;43.124;25.686;2024-01-07T03:06:00;70.88;;;67.97;;
7593;SDS011;3838;43.124;25.686;2024-01-07T03:08:26;70.03;;;67.18;;
7593;SDS011;3838;43.124;25.686;2024-01-07T03:10:52;70.70;;;67.82;;
7593;SDS011;3838;43.124;25.686;2024-01-07T03:13:18;68.53;;;65.72;;
7593;SDS011;3838;43.124;25.686;2024-01-07T03:15:44;67.28;;;64.53;;
7593;SDS011;3838;43.124;25.686;2024-01-07T03:18:09;67.07;;;64.32;;
7593;SDS011;3838;43.124;25.686;2024-01-07T03:20:35;67.70;;;64.95;;
7593;SDS011;3838;43.124;25.686;2024-01-07T03:23:00;68.28;;;65.50;;
7593;SDS011;3838;43.124;25.686;2024-01-07T03:25:26;68.18;;;65.43;;
7593;SDS011;3838;43.124;25.686;2024-01-07T03:27:51;66.55;;;63.83;;
7593;SDS011;3838;43.124;25.686;2024-01-07T03:30:17;67.82;;;65.07;;
7593;SDS011;3838;43.124;25.686;2024-01-07T03:32:42;68.70;;;65.93;;
7593;SDS011;3838;43.124;25.686;2024-01-07T03:35:08;64.38;;;61.75;;
7593;SDS011;3838;43.124;25.686;2024-01-07T03:37:36;65.82;;;63.17;;
7593;SDS011;3838;43.124;25.686;2024-01-07T03:40:02;68.88;;;66.13;;
7593;SDS011;3838;43.124;25.686;2024-01-07T03:42:27;69.07;;;66.32;;
7593;SDS011;3838;43.124;25.686;2024-01-07T03:44:53;67.80;;;65.05;;
7593;SDS011;3838;43.124;25.686;2024-01-07T03:47:18;66.97;;;64.28;;
7593;SDS011;3838;43.124;25.686;2024-01-07T03:49:44;66.22;;;63.58;;
7593;SDS011;3838;43.124;25.686;2024-01-07T03:52:09;71.35;;;68.47;;
7593;SDS011;3838;43.124;25.686;2024-01-07T03:54:34;67.50;;;64.80;;
7593;SDS011;3838;43.124;25.686;2024-01-07T03:57:00;67.80;;;65.03;;
7593;SDS011;3838;43.124;25.686;2024-01-07T03:59:25;68.18;;;65.45;;
7593;SDS011;3838;43.124;25.686;2024-01-07T04:01:55;68.70;;;65.95;;
7593;SDS011;3838;43.124;25.686;2024-01-07T04:04:21;65.82;;;63.17;;
7593;SDS011;3838;43.124;25.686;2024-01-07T04:06:46;69.03;;;66.25;;
7593;SDS011;3838;43.124;25.686;2024-01-07T04:09:12;70.13;;;67.35;;
7593;SDS011;3838;43.124;25.686;2024-01-07T04:11:41;68.80;;;66.05;;
7593;SDS011;3838;43.124;25.686;2024-01-07T04:14:07;67.68;;;64.97;;
7593;SDS011;3838;43.124;25.686;2024-01-07T04:16:33;67.45;;;64.75;;
7593;SDS011;3838;43.124;25.686;2024-01-07T04:18:58;69.88;;;67.07;;
7593;SDS011;3838;43.124;25.686;2024-01-07T04:21:24;68.75;;;66.00;;
7593;SDS011;3838;43.124;25.686;2024-01-07T04:23:49;70.43;;;67.65;;
7593;SDS011;3838;43.124;25.686;2024-01-07T04:26:14;66.80;;;64.15;;
7593;SDS011;3838;43.124;25.686;2024-01-07T04:28:43;70.65;;;67.82;;
7593;SDS011;3838;43.124;25.686;2024-01-07T04:31:09;69.65;;;66.90;;
7593;SDS011;3838;43.124;25.686;2024-01-07T04:33:34;67.43;;;64.72;;
7593;SDS011;3838;43.124;25.686;2024-01-07T04:36:00;71.20;;;68.35;;
7593;SDS011;3838;43.124;25.686;2024-01-07T04:38:26;67.95;;;65.22;;
7593;SDS011;3838;43.124;25.686;2024-01-07T04:40:52;70.47;;;67.70;;
7593;SDS011;3838;43.124;25.686;2024-01-07T04:43:20;69.45;;;66.70;;
7593;SDS011;3838;43.124;25.686;2024-01-07T04:45:46;67.15;;;64.50;;
7593;SDS011;3838;43.124;25.686;2024-01-07T04:48:12;69.25;;;66.50;;
7593;SDS011;3838;43.124;25.686;2024-01-07T04:50:39;71.47;;;68.63;;
7593;SDS011;3838;43.124;25.686;2024-01-07T04:53:05;70.95;;;68.13;;
7593;SDS011;3838;43.124;25.686;2024-01-07T04:55:31;72.68;;;69.78;;
7593;SDS011;3838;43.124;25.686;2024-01-07T04:57:56;74.68;;;71.72;;
7593;SDS011;3838;43.124;25.686;2024-01-07T05:00:21;76.28;;;73.28;;
7593;SDS011;3838;43.124;25.686;2024-01-07T05:02:47;79.55;;;76.40;;
7593;SDS011;3838;43.124;25.686;2024-01-07T05:05:13;75.95;;;72.93;;
7593;SDS011;3838;43.124;25.686;2024-01-07T05:07:38;80.78;;;77.55;;
7593;SDS011;3838;43.124;25.686;2024-01-07T05:10:04;82.72;;;79.47;;
7593;SDS011;3838;43.124;25.686;2024-01-07T05:12:30;81.10;;;77.93;;
7593;SDS011;3838;43.124;25.686;2024-01-07T05:14:55;81.65;;;78.43;;
7593;SDS011;3838;43.124;25.686;2024-01-07T05:17:21;80.63;;;77.45;;
7593;SDS011;3838;43.124;25.686;2024-01-07T05:19:46;80.53;;;77.32;;
7593;SDS011;3838;43.124;25.686;2024-01-07T05:22:11;80.30;;;77.13;;
7593;SDS011;3838;43.124;25.686;2024-01-07T05:24:37;82.18;;;78.93;;
7593;SDS011;3838;43.124;25.686;2024-01-07T05:27:05;83.15;;;79.90;;
7593;SDS011;3838;43.124;25.686;2024-01-07T05:29:31;82.00;;;78.78;;
7593;SDS011;3838;43.124;25.686;2024-01-07T05:31:58;81.80;;;78.57;;
7593;SDS011;3838;43.124;25.686;2024-01-07T05:34:25;77.95;;;74.88;;
7593;SDS011;3838;43.124;25.686;2024-01-07T05:36:51;80.90;;;77.72;;
7593;SDS011;3838;43.124;25.686;2024-01-07T05:39:16;81.20;;;78.03;;
7593;SDS011;3838;43.124;25.686;2024-01-07T05:41:42;81.72;;;78.53;;
7593;SDS011;3838;43.124;25.686;2024-01-07T05:44:07;77.32;;;74.28;;
7593;SDS011;3838;43.124;25.686;2024-01-07T05:46:38;82.45;;;79.22;;
7593;SDS011;3838;43.124;25.686;2024-01-07T05:49:08;84.18;;;80.88;;
7593;SDS011;3838;43.124;25.686;2024-01-07T05:51:33;83.50;;;80.22;;
7593;SDS011;3838;43.124;25.686;2024-01-07T05:53:58;84.03;;;80.70;;
7593;SDS011;3838;43.124;25.686;2024-01-07T05:56:24;84.15;;;80.85;;
7593;SDS011;3838;43.124;25.686;2024-01-07T05:58:49;85.43;;;82.10;;
7593;SDS011;3838;43.124;25.686;2024-01-07T06:01:18;82.00;;;78.75;;
7593;SDS011;3838;43.124;25.686;2024-01-07T06:03:45;80.70;;;77.55;;
7593;SDS011;3838;43.124;25.686;2024-01-07T06:06:12;83.18;;;79.90;;
7593;SDS011;3838;43.124;25.686;2024-01-07T06:08:37;80.85;;;77.68;;
7593;SDS011;3838;43.124;25.686;2024-01-07T06:11:03;81.82;;;78.60;;
7593;SDS011;3838;43.124;25.686;2024-01-07T06:13:28;79.50;;;76.38;;
7593;SDS011;3838;43.124;25.686;2024-01-07T06:15:54;83.60;;;80.32;;
7593;SDS011;3838;43.124;25.686;2024-01-07T06:18:19;81.32;;;78.13;;
7593;SDS011;3838;43.124;25.686;2024-01-07T06:20:44;82.72;;;79.47;;
7593;SDS011;3838;43.124;25.686;2024-01-07T06:23:10;84.22;;;80.97;;
7593;SDS011;3838;43.124;25.686;2024-01-07T06:25:35;81.55;;;78.35;;
7593;SDS011;3838;43.124;25.686;2024-01-07T06:28:00;82.13;;;78.95;;
7593;SDS011;3838;43.124;25.686;2024-01-07T06:30:26;81.90;;;78.70;;
7593;SDS011;3838;43.124;25.686;2024-01-07T06:32:52;83.38;;;80.13;;
7593;SDS011;3838;43.124;25.686;2024-01-07T06:35:17;85.25;;;81.93;;
7593;SDS011;3838;43.124;25.686;2024-01-07T06:37:43;77.75;;;74.70;;
7593;SDS011;3838;43.124;25.686;2024-01-07T06:40:08;82.10;;;78.85;;
7593;SDS011;3838;43.124;25.686;2024-01-07T06:42:36;83.88;;;80.57;;
7593;SDS011;3838;43.124;25.686;2024-01-07T06:45:02;87.32;;;83.88;;
7593;SDS011;3838;43.124;25.686;2024-01-07T06:47:27;88.85;;;85.38;;
7593;SDS011;3838;43.124;25.686;2024-01-07T06:49:53;90.85;;;87.32;;
7593;SDS011;3838;43.124;25.686;2024-01-07T06:52:19;91.30;;;87.72;;
7593;SDS011;3838;43.124;25.686;2024-01-07T06:54:46;91.07;;;87.53;;
7593;SDS011;3838;43.124;25.686;2024-01-07T06:57:11;93.47;;;89.85;;
7593;SDS011;3838;43.124;25.686;2024-01-07T06:59:36;94.95;;;91.22;;
7593;SDS011;3838;43.124;25.686;2024-01-07T07:02:02;97.45;;;93.68;;
7593;SDS011;3838;43.124;25.686;2024-01-07T07:04:27;95.28;;;91.57;;
7593;SDS011;3838;43.124;25.686;2024-01-07T07:06:52;96.78;;;93.00;;
7593;SDS011;3838;43.124;25.686;2024-01-07T07:09:18;96.53;;;92.78;;
7593;SDS011;3838;43.124;25.686;2024-01-07T07:11:44;98.65;;;94.80;;
7593;SDS011;3838;43.124;25.686;2024-01-07T07:14:09;101.30;;;97.38;;
7593;SDS011;3838;43.124;25.686;2024-01-07T07:16:35;100.82;;;96.93;;
7593;SDS011;3838;43.124;25.686;2024-01-07T07:19:00;103.68;;;99.63;;
7593;SDS011;3838;43.124;25.686;2024-01-07T07:21:26;100.47;;;96.60;;
7593;SDS011;3838;43.124;25.686;2024-01-07T07:23:52;102.15;;;98.20;;
7593;SDS011;3838;43.124;25.686;2024-01-07T07:26:18;105.30;;;101.25;;
7593;SDS011;3838;43.124;25.686;2024-01-07T07:28:43;101.25;;;97.35;;
7593;SDS011;3838;43.124;25.686;2024-01-07T07:31:10;106.72;;;102.65;;
7593;SDS011;3838;43.124;25.686;2024-01-07T07:33:38;99.30;;;95.47;;
7593;SDS011;3838;43.124;25.686;2024-01-07T07:36:04;104.97;;;100.95;;
7593;SDS011;3838;43.124;25.686;2024-01-07T07:38:29;103.82;;;99.80;;
7593;SDS011;3838;43.124;25.686;2024-01-07T07:40:54;106.78;;;102.72;;
7593;SDS011;3838;43.124;25.686;2024-01-07T07:43:20;105.88;;;101.82;;
7593;SDS011;3838;43.124;25.686;2024-01-07T07:45:46;103.03;;;99.10;;
7593;SDS011;3838;43.124;25.686;2024-01-07T07:48:11;106.85;;;102.78;;
7593;SDS011;3838;43.124;25.686;2024-01-07T07:50:37;107.80;;;103.65;;
7593;SDS011;3838;43.124;25.686;2024-01-07T07:53:02;109.25;;;105.07;;
7593;SDS011;3838;43.124;25.686;2024-01-07T07:55:28;104.60;;;100.55;;
7593;SDS011;3838;43.124;25.686;2024-01-07T07:57:53;111.55;;;107.28;;
7593;SDS011;3838;43.124;25.686;2024-01-07T08:00:19;111.10;;;106.85;;
7593;SDS011;3838;43.124;25.686;2024-01-07T08:02:44;108.13;;;104.03;;
7593;SDS011;3838;43.124;25.686;2024-01-07T08:05:10;106.15;;;102.13;;
7593;SDS011;3838;43.124;25.686;2024-01-07T08:07:35;107.35;;;103.22;;
7593;SDS011;3838;43.124;25.686;2024-01-07T08:10:01;106.35;;;102.25;;
7593;SDS011;3838;43.124;25.686;2024-01-07T08:12:26;107.45;;;103.38;;
7593;SDS011;3838;43.124;25.686;2024-01-07T08:14:51;110.50;;;106.28;;
7593;SDS011;3838;43.124;25.686;2024-01-07T08:17:17;106.75;;;102.65;;
7593;SDS011;3838;43.124;25.686;2024-01-07T08:19:42;111.30;;;107.07;;
7593;SDS011;3838;43.124;25.686;2024-01-07T08:22:07;118.20;;;113.80;;
7593;SDS011;3838;43.124;25.686;2024-01-07T08:24:34;115.50;;;111.25;;
7593;SDS011;3838;43.124;25.686;2024-01-07T08:27:00;119.07;;;114.70;;
7593;SDS011;3838;43.124;25.686;2024-01-07T08:29:26;119.65;;;115.10;;
7593;SDS011;3838;43.124;25.686;2024-01-07T08:31:51;118.28;;;113.90;;
7593;SDS011;3838;43.124;25.686;2024-01-07T08:34:17;114.22;;;109.95;;
7593;SDS011;3838;43.124;25.686;2024-01-07T08:36:43;117.97;;;113.55;;
7593;SDS011;3838;43.124;25.686;2024-01-07T08:39:08;114.82;;;110.55;;
7593;SDS011;3838;43.124;25.686;2024-01-07T08:41:33;117.53;;;113.15;;
7593;SDS011;3838;43.124;25.686;2024-01-07T08:43:59;116.78;;;112.40;;
7593;SDS011;3838;43.124;25.686;2024-01-07T08:46:24;118.72;;;114.32;;
7593;SDS011;3838;43.124;25.686;2024-01-07T08:48:50;120.45;;;116.00;;
7593;SDS011;3838;43.124;25.686;2024-01-07T08:51:15;121.28;;;116.78;;
7593;SDS011;3838;43.124;25.686;2024-01-07T08:53:40;121.90;;;117.38;;
7593;SDS011;3838;43.124;25.686;2024-01-07T08:56:06;120.55;;;116.05;;
7593;SDS011;3838;43.124;25.686;2024-01-07T08:58:32;118.72;;;114.32;;
7593;SDS011;3838;43.124;25.686;2024-01-07T09:00:57;124.80;;;120.18;;
7593;SDS011;3838;43.124;25.686;2024-01-07T09:03:23;125.07;;;120.45;;
7593;SDS011;3838;43.124;25.686;2024-01-07T09:05:48;123.57;;;118.93;;
7593;SDS011;3838;43.124;25.686;2024-01-07T09:08:13;122.22;;;117.72;;
7593;SDS011;3838;43.124;25.686;2024-01-07T09:10:39;125.60;;;120.97;;
7593;SDS011;3838;43.124;25.686;2024-01-07T09:13:05;126.88;;;122.20;;
7593;SDS011;3838;43.124;25.686;2024-01-07T09:15:32;124.22;;;119.55;;
7593;SDS011;3838;43.124;25.686;2024-01-07T09:17:57;122.63;;;118.07;;
7593;SDS011;3838;43.124;25.686;2024-01-07T09:20:23;123.90;;;119.32;;
7593;SDS011;3838;43.124;25.686;2024-01-07T09:22:48;126.60;;;121.93;;
7593;SDS011;3838;43.124;25.686;2024-01-07T09:25:14;127.78;;;123.07;;
7593;SDS011;3838;43.124;25.686;2024-01-07T09:27:39;125.43;;;120.80;;
7593;SDS011;3838;43.124;25.686;2024-01-07T09:30:05;123.45;;;118.90;;
7593;SDS011;3838;43.124;25.686;2024-01-07T09:32:31;124.68;;;120.03;;
7593;SDS011;3838;43.124;25.686;2024-01-07T09:34:56;127.93;;;123.18;;
7593;SDS011;3838;43.124;25.686;2024-01-07T09:37:23;125.43;;;120.80;;
7593;SDS011;3838;43.124;25.686;2024-01-07T09:39:48;122.32;;;117.78;;
7593;SDS011;3838;43.124;25.686;2024-01-07T09:42:17;122.70;;;118.18;;
7593;SDS011;3838;43.124;25.686;2024-01-07T09:44:44;123.93;;;119.32;;
7593;SDS011;3838;43.124;25.686;2024-01-07T09:47:13;122.38;;;117.80;;
7593;SDS011;3838;43.124;25.686;2024-01-07T09:49:39;122.22;;;117.68;;
7593;SDS011;3838;43.124;25.686;2024-01-07T09:52:06;121.85;;;117.32;;
7593;SDS011;3838;43.124;25.686;2024-01-07T09:54:33;122.63;;;118.07;;
7593;SDS011;3838;43.124;25.686;2024-01-07T09:57:04;122.20;;;117.63;;
7593;SDS011;3838;43.124;25.686;2024-01-07T09:59:31;119.22;;;114.78;;
7593;SDS011;3838;43.124;25.686;2024-01-07T10:01:57;119.78;;;115.30;;
7593;SDS011;3838;43.124;25.686;2024-01-07T10:04:23;115.43;;;111.13;;
7593;SDS011;3838;43.124;25.686;2024-01-07T10:06:49;118.03;;;113.57;;
7593;SDS011;3838;43.124;25.686;2024-01-07T10:09:16;116.57;;;112.20;;
7593;SDS011;3838;43.124;25.686;2024-01-07T10:11:45;111.35;;;107.15;;
7593;SDS011;3838;43.124;25.686;2024-01-07T10:14:10;114.45;;;110.15;;
7593;SDS011;3838;43.124;25.686;2024-01-07T10:16:36;114.18;;;109.82;;
7593;SDS011;3838;43.124;25.686;2024-01-07T10:19:02;111.05;;;106.80;;
7593;SDS011;3838;43.124;25.686;2024-01-07T10:21:27;115.78;;;111.38;;
7593;SDS011;3838;43.124;25.686;2024-01-07T10:24:09;113.95;;;109.60;;
7593;SDS011;3838;43.124;25.686;2024-01-07T10:26:37;112.05;;;107.80;;
7593;SDS011;3838;43.124;25.686;2024-01-07T10:29:04;110.95;;;106.72;;
7593;SDS011;3838;43.124;25.686;2024-01-07T10:31:29;110.38;;;106.18;;
7593;SDS011;3838;43.124;25.686;2024-01-07T10:33:56;111.78;;;107.55;;
7593;SDS011;3838;43.124;25.686;2024-01-07T10:36:22;110.40;;;106.20;;
7593;SDS011;3838;43.124;25.686;2024-01-07T10:38:49;109.93;;;105.72;;
7593;SDS011;3838;43.124;25.686;2024-01-07T10:41:16;112.55;;;108.25;;
7593;SDS011;3838;43.124;25.686;2024-01-07T10:43:43;103.15;;;99.18;;
7593;SDS011;3838;43.124;25.686;2024-01-07T10:46:14;101.80;;;97.85;;
7593;SDS011;3838;43.124;25.686;2024-01-07T10:49:04;106.75;;;102.60;;
7593;SDS011;3838;43.124;25.686;2024-01-07T10:51:29;123.95;;;119.20;;
7593;SDS011;3838;43.124;25.686;2024-01-07T10:53:59;75.95;;;72.95;;
7593;SDS011;3838;43.124;25.686;2024-01-07T10:56:29;67.07;;;64.40;;
7593;SDS011;3838;43.124;25.686;2024-01-07T10:58:58;85.50;;;82.05;;
7593;SDS011;3838;43.124;25.686;2024-01-07T11:01:24;108.10;;;103.68;;
7593;SDS011;3838;43.124;25.686;2024-01-07T11:11:41;89.55;;;86.05;;
7593;SDS011;3838;43.124;25.686;2024-01-07T11:17:05;60.08;;;57.67;;
7593;SDS011;3838;43.124;25.686;2024-01-07T11:19:31;54.50;;;52.33;;
7593;SDS011;3838;43.124;25.686;2024-01-07T11:22:30;51.85;;;49.75;;
7593;SDS011;3838;43.124;25.686;2024-01-07T11:24:50;48.85;;;46.90;;
7593;SDS011;3838;43.124;25.686;2024-01-07T11:27:16;47.83;;;45.92;;
7593;SDS011;3838;43.124;25.686;2024-01-07T11:29:42;50.28;;;48.28;;
7593;SDS011;3838;43.124;25.686;2024-01-07T11:32:07;54.50;;;52.33;;
7593;SDS011;3838;43.124;25.686;2024-01-07T11:34:39;65.70;;;63.08;;
7593;SDS011;3838;43.124;25.686;2024-01-07T11:37:09;77.15;;;74.05;;
7593;SDS011;3838;43.124;25.686;2024-01-07T11:39:37;83.38;;;80.10;;
7593;SDS011;3838;43.124;25.686;2024-01-07T11:42:05;89.45;;;85.93;;
7593;SDS011;3838;43.124;25.686;2024-01-07T11:44:33;90.90;;;87.30;;
7593;SDS011;3838;43.124;25.686;2024-01-07T11:47:00;89.90;;;86.38;;
7593;SDS011;3838;43.124;25.686;2024-01-07T11:49:26;96.70;;;92.93;;
7593;SDS011;3838;43.124;25.686;2024-01-07T11:51:51;99.35;;;95.47;;
7593;SDS011;3838;43.124;25.686;2024-01-07T11:54:17;98.35;;;94.47;;
7593;SDS011;3838;43.124;25.686;2024-01-07T11:56:43;92.88;;;89.25;;
7593;SDS011;3838;43.124;25.686;2024-01-07T11:59:09;96.47;;;92.72;;
7593;SDS011;3838;43.124;25.686;2024-01-07T12:01:34;98.85;;;94.95;;
7593;SDS011;3838;43.124;25.686;2024-01-07T12:04:00;97.55;;;93.68;;
7593;SDS011;3838;43.124;25.686;2024-01-07T12:06:25;96.15;;;92.40;;
7593;SDS011;3838;43.124;25.686;2024-01-07T12:08:51;99.72;;;95.88;;
7593;SDS011;3838;43.124;25.686;2024-01-07T12:11:18;98.30;;;94.47;;
7593;SDS011;3838;43.124;25.686;2024-01-07T12:13:44;99.03;;;95.18;;
7593;SDS011;3838;43.124;25.686;2024-01-07T12:16:10;103.82;;;99.78;;
7593;SDS011;3838;43.124;25.686;2024-01-07T12:18:36;103.40;;;99.40;;
7593;SDS011;3838;43.124;25.686;2024-01-07T12:21:03;102.00;;;98.00;;
7593;SDS011;3838;43.124;25.686;2024-01-07T12:23:28;108.40;;;104.18;;
7593;SDS011;3838;43.124;25.686;2024-01-07T12:25:54;106.15;;;102.03;;
7593;SDS011;3838;43.124;25.686;2024-01-07T12:28:21;109.53;;;105.28;;
7593;SDS011;3838;43.124;25.686;2024-01-07T12:30:49;106.43;;;102.25;;
7593;SDS011;3838;43.124;25.686;2024-01-07T12:33:16;109.03;;;104.82;;
7593;SDS011;3838;43.124;25.686;2024-01-07T12:35:47;107.25;;;103.03;;
7593;SDS011;3838;43.124;25.686;2024-01-07T12:38:13;108.07;;;103.82;;
7593;SDS011;3838;43.124;25.686;2024-01-07T12:40:39;109.53;;;105.28;;
7593;SDS011;3838;43.124;25.686;2024-01-07T12:43:04;103.82;;;99.78;;
7593;SDS011;3838;43.124;25.686;2024-01-07T12:45:32;102.95;;;98.95;;
7593;SDS011;3838;43.124;25.686;2024-01-07T12:47:58;107.85;;;103.60;;
7593;SDS011;3838;43.124;25.686;2024-01-07T12:50:27;99.53;;;95.60;;
7593;SDS011;3838;43.124;25.686;2024-01-07T12:52:54;98.97;;;95.13;;
7593;SDS011;3838;43.124;25.686;2024-01-07T12:55:20;103.10;;;99.05;;
7593;SDS011;3838;43.124;25.686;2024-01-07T12:57:46;106.82;;;102.65;;
7593;SDS011;3838;43.124;25.686;2024-01-07T13:00:11;103.70;;;99.55;;
7593;SDS011;3838;43.124;25.686;2024-01-07T13:02:37;103.80;;;99.75;;
7593;SDS011;3838;43.124;25.686;2024-01-07T13:05:02;100.03;;;96.07;;
7593;SDS011;3838;43.124;25.686;2024-01-07T13:07:28;100.35;;;96.40;;
7593;SDS011;3838;43.124;25.686;2024-01-07T13:09:54;99.38;;;95.47;;
7593;SDS011;3838;43.124;25.686;2024-01-07T13:12:19;89.72;;;86.22;;
7593;SDS011;3838;43.124;25.686;2024-01-07T13:14:45;60.28;;;57.78;;
7593;SDS011;3838;43.124;25.686;2024-01-07T13:17:12;51.30;;;49.05;;
7593;SDS011;3838;43.124;25.686;2024-01-07T13:19:38;51.70;;;49.45;;
7593;SDS011;3838;43.124;25.686;2024-01-07T13:22:04;53.33;;;51.17;;
7593;SDS011;3838;43.124;25.686;2024-01-07T13:24:30;53.03;;;50.88;;
7593;SDS011;3838;43.124;25.686;2024-01-07T13:26:55;69.03;;;65.78;;
7593;SDS011;3838;43.124;25.686;2024-01-07T13:29:21;79.97;;;76.45;;
7593;SDS011;3838;43.124;25.686;2024-01-07T13:31:47;87.75;;;83.90;;
7593;SDS011;3838;43.124;25.686;2024-01-07T13:34:12;71.38;;;68.22;;
7593;SDS011;3838;43.124;25.686;2024-01-07T13:36:39;69.22;;;66.22;;
7593;SDS011;3838;43.124;25.686;2024-01-07T13:39:05;68.78;;;65.93;;
7593;SDS011;3838;43.124;25.686;2024-01-07T13:41:32;66.22;;;63.38;;
7593;SDS011;3838;43.124;25.686;2024-01-07T13:43:58;63.08;;;60.53;;
7593;SDS011;3838;43.124;25.686;2024-01-07T13:46:23;69.78;;;66.97;;
7593;SDS011;3838;43.124;25.686;2024-01-07T13:48:50;68.53;;;65.78;;
7593;SDS011;3838;43.124;25.686;2024-01-07T13:51:17;67.28;;;64.60;;
7593;SDS011;3838;43.124;25.686;2024-01-07T13:53:43;65.25;;;62.60;;
7593;SDS011;3838;43.124;25.686;2024-01-07T13:56:10;69.13;;;66.22;;
7593;SDS011;3838;43.124;25.686;2024-01-07T13:58:36;67.03;;;64.13;;
7593;SDS011;3838;43.124;25.686;2024-01-07T14:01:02;64.07;;;61.45;;
7593;SDS011;3838;43.124;25.686;2024-01-07T14:03:28;67.00;;;64.25;;
7593;SDS011;3838;43.124;25.686;2024-01-07T14:05:55;62.42;;;59.90;;
7593;SDS011;3838;43.124;25.686;2024-01-07T14:08:21;67.30;;;64.55;;
7593;SDS011;3838;43.124;25.686;2024-01-07T14:10:46;90.57;;;86.53;;
7593;SDS011;3838;43.124;25.686;2024-01-07T14:13:12;104.72;;;99.93;;
7593;SDS011;3838;43.124;25.686;2024-01-07T14:15:37;70.68;;;67.68;;
7593;SDS011;3838;43.124;25.686;2024-01-07T14:18:02;75.85;;;72.70;;
7593;SDS011;3838;43.124;25.686;2024-01-07T14:20:28;70.55;;;67.68;;
7593;SDS011;3838;43.124;25.686;2024-01-07T14:22:54;64.03;;;61.47;;
7593;SDS011;3838;43.124;25.686;2024-01-07T14:25:19;58.22;;;55.97;;
7593;SDS011;3838;43.124;25.686;2024-01-07T14:27:45;59.30;;;56.90;;
7593;SDS011;3838;43.124;25.686;2024-01-07T14:30:11;63.05;;;60.60;;